Twin Lakes, Minnesota
Current Conditions -  °F | °C
As of 4:14 AM on Tuesday 27 Jan 2015 (Local Time) from KAEL Reporting Station
Overcast Overcast  
Wind Chill: 30°   Ceiling: 2000
Heat Index: 34°   Visibility: 10mi
Dew Point: 30°   Wind: 5mph
Humidity: 87%   Direction: 350°N
Pressure: 30.04"   Gusts: NA
Location:  43.56°N, 93.42°W
Report Text: KAEL 271014Z AUTO 35004KT 10SM OVC020 01/M01 A3004 RMK AO2
Loading
Personal Weather Stations






























Interactive Weather Map New forecast layout! Learn more

10-Day Weather Forecast

Advertisements
Track Severe Weather on mobile